Terminal Aerodrome Forecast
Issued by NWS Glasgow, MT

Home | Current Version | Previous Version | Text Only | Print | Product List | Glossary On
Versions: 1 2 3 4 5 6 7 8 9 10 11 12 13
000
FTUS45 KGGW 162300
TAFGGW
TAF
KGGW 162323Z 1700/1724 10012KT P6SM BKN035
     FM170900 10017KT P6SM OVC025
     FM171700 14020KT P6SM OVC070=

USA.gov is the U.S. government's official web portal to all federal, state and local government web resources and services.